createdAt,value
2022-09-16T00:01:13.231Z,16.34
2022-09-16T00:03:41.491Z,16.36
2022-09-16T00:06:20.367Z,16.05
2022-09-16T00:08:48.623Z,16.06
2022-09-16T00:11:17.929Z,16.32
2022-09-16T00:13:46.675Z,16.22
2022-09-16T00:16:20.558Z,16.29
2022-09-16T00:18:49.253Z,16.12
2022-09-16T00:21:18.455Z,15.86
2022-09-16T00:23:46.329Z,16.21
2022-09-16T00:26:14.321Z,15.88
2022-09-16T00:28:42.200Z,15.69
2022-09-16T00:31:10.082Z,15.55
2022-09-16T00:33:37.884Z,15.79
2022-09-16T00:36:08.925Z,16.05
2022-09-16T00:38:38.377Z,16.06
2022-09-16T00:41:07.325Z,15.77
2022-09-16T00:43:51.978Z,15.34
2022-09-16T00:46:27.532Z,15.32
2022-09-16T00:48:55.687Z,15.68
2022-09-16T00:51:25.336Z,16.03
2022-09-16T00:54:02.080Z,15.82
2022-09-16T00:56:35.433Z,15.73
2022-09-16T00:59:10.890Z,15.39
2022-09-16T01:01:42.482Z,15.76
2022-09-16T01:04:18.253Z,15.90
2022-09-16T01:06:46.876Z,15.32
2022-09-16T01:09:17.730Z,15.59
2022-09-16T01:11:45.475Z,15.73
2022-09-16T01:14:32.929Z,15.77
2022-09-16T01:17:10.534Z,15.32
2022-09-16T01:20:06.896Z,15.65
2022-09-16T01:23:02.820Z,15.66
2022-09-16T01:25:56.658Z,15.19
2022-09-16T01:29:05.452Z,15.44
2022-09-16T01:31:44.131Z,15.32
2022-09-16T01:34:26.167Z,15.55
2022-09-16T01:37:05.153Z,15.06
2022-09-16T01:39:45.798Z,15.17
2022-09-16T01:42:31.114Z,15.15
2022-09-16T01:45:07.302Z,15.54
2022-09-16T01:47:45.983Z,15.57
2022-09-16T01:50:23.853Z,15.54
2022-09-16T01:53:09.102Z,15.08
2022-09-16T01:55:42.672Z,15.42
2022-09-16T01:58:23.782Z,14.90
2022-09-16T02:01:01.588Z,15.02
2022-09-16T02:03:35.958Z,15.29
2022-09-16T02:06:09.664Z,15.18
2022-09-16T02:08:44.696Z,15.40
2022-09-16T02:11:17.285Z,15.06
2022-09-16T02:13:50.481Z,15.18
2022-09-16T02:16:27.180Z,15.44
2022-09-16T02:19:02.179Z,15.55
2022-09-16T02:21:34.368Z,15.21
2022-09-16T02:24:09.795Z,15.27
2022-09-16T02:26:43.480Z,15.41
2022-09-16T02:29:20.104Z,15.33
2022-09-16T02:31:53.612Z,15.07
2022-09-16T02:34:31.262Z,15.00
2022-09-16T02:37:07.932Z,15.23
2022-09-16T02:39:41.708Z,15.13
2022-09-16T02:42:09.613Z,15.13
2022-09-16T02:44:37.762Z,15.30
2022-09-16T02:47:17.066Z,15.34
2022-09-16T02:49:56.940Z,14.72
2022-09-16T02:52:37.356Z,15.04
2022-09-16T02:55:16.710Z,15.21
2022-09-16T02:57:44.520Z,15.29
2022-09-16T03:00:13.026Z,15.13
2022-09-16T03:02:40.898Z,15.22
2022-09-16T03:05:10.559Z,14.85
2022-09-16T03:07:41.929Z,15.11
2022-09-16T03:10:13.194Z,15.24
2022-09-16T03:12:55.288Z,14.62
2022-09-16T03:15:45.171Z,14.54
2022-09-16T03:18:36.127Z,15.05
2022-09-16T03:21:20.696Z,14.63
2022-09-16T03:24:02.943Z,13.85
2022-09-16T03:26:46.697Z,13.92
2022-09-16T03:29:26.296Z,14.48
2022-09-16T03:32:04.527Z,15.10
2022-09-16T03:34:40.981Z,15.05
2022-09-16T03:37:19.674Z,15.28
2022-09-16T03:39:53.598Z,15.22
2022-09-16T03:42:23.333Z,14.93
2022-09-16T03:44:51.429Z,14.81
2022-09-16T03:47:19.393Z,15.21
2022-09-16T03:49:47.270Z,15.14
2022-09-16T03:52:18.672Z,14.56
2022-09-16T03:54:46.549Z,15.05
2022-09-16T03:57:14.310Z,15.24
2022-09-16T03:59:42.253Z,15.12
2022-09-16T04:02:10.048Z,13.78
2022-09-16T04:04:37.809Z,14.33
2022-09-16T04:07:05.901Z,14.17
2022-09-16T04:09:37.241Z,14.41
2022-09-16T04:12:07.598Z,14.40
2022-09-16T04:14:35.764Z,14.54
2022-09-16T04:17:04.431Z,14.86
2022-09-16T04:19:34.226Z,14.59
2022-09-16T04:22:02.050Z,14.96
2022-09-16T04:24:30.044Z,15.09
2022-09-16T04:26:59.256Z,14.92
2022-09-16T04:29:27.813Z,14.26
2022-09-16T04:31:55.855Z,14.84
2022-09-16T04:34:23.670Z,14.63
2022-09-16T04:36:51.527Z,15.06
2022-09-16T04:39:19.286Z,14.49
2022-09-16T04:41:47.140Z,13.98
2022-09-16T04:44:16.405Z,14.35
2022-09-16T04:46:44.185Z,14.59
2022-09-16T04:49:13.382Z,14.77
2022-09-16T04:51:41.515Z,14.87
2022-09-16T04:54:09.519Z,14.71
2022-09-16T04:56:37.423Z,14.68
2022-09-16T04:59:07.040Z,14.91
2022-09-16T05:01:39.889Z,14.88
2022-09-16T05:04:10.074Z,15.10
2022-09-16T05:06:40.486Z,15.27
2022-09-16T05:09:10.957Z,14.80
2022-09-16T05:11:41.642Z,14.94
2022-09-16T05:14:18.124Z,14.50
2022-09-16T05:16:47.688Z,14.54
2022-09-16T05:19:16.113Z,14.60
2022-09-16T05:21:44.043Z,14.88
2022-09-16T05:24:15.037Z,14.49
2022-09-16T05:26:44.422Z,14.58
2022-09-16T05:29:15.607Z,14.38
2022-09-16T05:31:47.258Z,14.49
2022-09-16T05:34:19.399Z,14.95
2022-09-16T05:36:54.201Z,15.33
2022-09-16T05:39:24.844Z,14.86
2022-09-16T05:41:56.747Z,15.39
2022-09-16T05:44:25.636Z,14.74
2022-09-16T05:46:54.178Z,14.41
2022-09-16T05:49:23.813Z,14.21
2022-09-16T05:51:52.905Z,14.92
2022-09-16T05:54:23.750Z,15.34
2022-09-16T05:56:51.934Z,14.74
2022-09-16T05:59:20.038Z,14.78
2022-09-16T06:01:47.886Z,15.29
2022-09-16T06:04:16.953Z,15.43
2022-09-16T06:06:47.703Z,14.68
2022-09-16T06:09:18.374Z,15.32
2022-09-16T06:11:48.539Z,15.36
2022-09-16T06:14:18.215Z,15.37
2022-09-16T06:16:47.115Z,15.03
2022-09-16T06:19:17.693Z,15.32
2022-09-16T06:21:47.909Z,15.75
2022-09-16T06:24:18.044Z,15.35
2022-09-16T06:26:47.783Z,15.72
2022-09-16T06:29:16.995Z,15.72
2022-09-16T06:31:44.841Z,15.75
2022-09-16T06:34:18.353Z,15.18
2022-09-16T06:36:48.198Z,15.65
2022-09-16T06:39:17.883Z,16.27
2022-09-16T06:41:45.993Z,16.53
2022-09-16T06:44:14.113Z,16.47
2022-09-16T06:46:42.153Z,16.37
2022-09-16T06:49:11.359Z,16.33
2022-09-16T06:51:39.479Z,16.24
2022-09-16T06:54:09.629Z,15.61
2022-09-16T06:56:39.556Z,16.07
2022-09-16T06:59:08.642Z,16.31
2022-09-16T07:01:36.805Z,16.48
2022-09-16T07:04:08.259Z,16.25
2022-09-16T07:07:07.405Z,16.15
2022-09-16T07:09:27.185Z,16.59
2022-09-16T07:11:57.036Z,16.15
2022-09-16T07:14:24.907Z,15.97
2022-09-16T07:16:53.264Z,16.37
2022-09-16T07:19:21.478Z,15.49
2022-09-16T07:21:49.291Z,15.86
2022-09-16T07:24:17.207Z,16.05
2022-09-16T07:26:47.175Z,16.32
2022-09-16T07:29:20.450Z,16.61
2022-09-16T07:31:48.236Z,16.54
2022-09-16T07:34:16.017Z,15.83
2022-09-16T07:36:46.282Z,16.16
2022-09-16T07:39:17.008Z,16.68
2022-09-16T07:41:49.439Z,16.44
2022-09-16T07:44:23.431Z,16.48
2022-09-16T07:46:51.664Z,15.81
2022-09-16T07:49:20.031Z,16.65
2022-09-16T07:51:48.407Z,16.88
2022-09-16T07:54:19.847Z,17.32
2022-09-16T07:56:48.981Z,16.63
2022-09-16T07:59:20.461Z,17.49
2022-09-16T08:01:50.445Z,16.83
2022-09-16T08:04:20.024Z,17.13
2022-09-16T08:06:48.885Z,17.14
2022-09-16T08:12:10.683Z,17.25
2022-09-16T08:14:38.513Z,17.62
2022-09-16T08:17:07.490Z,17.23
2022-09-16T08:19:35.327Z,17.31
2022-09-16T08:22:03.152Z,16.88
2022-09-16T08:24:31.048Z,17.12
2022-09-16T08:26:58.805Z,16.82
2022-09-16T08:29:28.117Z,16.75
2022-09-16T08:31:56.241Z,17.25
2022-09-16T08:34:24.239Z,16.39
2022-09-16T08:36:52.294Z,17.03
2022-09-16T08:39:21.582Z,17.30
2022-09-16T08:42:23.276Z,17.13
2022-09-16T08:45:04.406Z,17.64
2022-09-16T08:47:50.915Z,16.43
2022-09-16T08:50:29.911Z,16.06
2022-09-16T08:53:00.841Z,16.43
2022-09-16T08:55:35.410Z,16.23
2022-09-16T08:58:08.236Z,16.96
2022-09-16T09:00:40.354Z,17.34
2022-09-16T09:03:19.777Z,17.23
2022-09-16T09:05:53.974Z,17.07
2022-09-16T09:08:41.031Z,17.14
2022-09-16T09:11:19.307Z,17.35
2022-09-16T09:14:06.974Z,17.41
2022-09-16T09:16:48.932Z,18.10
2022-09-16T09:19:45.162Z,17.72
2022-09-16T09:22:31.190Z,17.18
2022-09-16T09:25:27.706Z,17.88
2022-09-16T09:28:13.498Z,18.22
2022-09-16T09:30:53.586Z,18.10
2022-09-16T09:33:46.793Z,17.59
2022-09-16T09:36:40.254Z,18.12
2022-09-16T09:39:39.786Z,19.01
2022-09-16T09:42:18.544Z,19.07
2022-09-16T09:45:01.378Z,18.76
2022-09-16T09:47:37.887Z,18.45
2022-09-16T09:50:19.833Z,18.82
2022-09-16T09:52:58.716Z,18.52
2022-09-16T09:55:33.390Z,18.90
2022-09-16T09:58:18.329Z,18.11
2022-09-16T10:00:46.560Z,18.65
2022-09-16T10:03:19.098Z,19.27
2022-09-16T10:05:49.133Z,18.90
2022-09-16T10:08:26.246Z,18.94
2022-09-16T10:10:57.161Z,18.19
2022-09-16T10:13:26.880Z,18.26
2022-09-16T10:16:11.183Z,17.92
2022-09-16T10:18:39.631Z,18.14
2022-09-16T10:21:13.869Z,18.60
2022-09-16T10:23:42.529Z,17.12
2022-09-16T10:26:22.308Z,17.19
2022-09-16T10:29:00.373Z,17.96
2022-09-16T10:31:36.269Z,17.99
2022-09-16T10:34:14.009Z,17.92
2022-09-16T10:36:43.343Z,18.67
2022-09-16T10:39:24.729Z,18.69
2022-09-16T10:41:53.013Z,17.89
2022-09-16T10:44:27.032Z,17.89
2022-09-16T10:46:58.822Z,17.98
2022-09-16T10:49:39.116Z,18.27
2022-09-16T10:52:18.157Z,18.33
2022-09-16T10:54:46.745Z,18.38
2022-09-16T10:57:25.581Z,18.36
2022-09-16T11:00:12.005Z,18.43
2022-09-16T11:03:08.143Z,19.25
2022-09-16T11:05:48.428Z,19.03
2022-09-16T11:08:34.733Z,18.41
2022-09-16T11:11:14.233Z,17.71
2022-09-16T11:13:55.679Z,17.53
2022-09-16T11:16:55.348Z,17.63
2022-09-16T11:19:34.470Z,17.69
2022-09-16T11:22:25.166Z,18.04
2022-09-16T11:25:30.434Z,17.92
2022-09-16T11:28:19.324Z,17.61
2022-09-16T11:31:01.933Z,18.30
2022-09-16T11:33:41.444Z,17.67
2022-09-16T11:36:30.904Z,17.90
2022-09-16T11:39:19.806Z,18.64
2022-09-16T11:42:01.866Z,18.42
2022-09-16T11:44:42.991Z,18.38
2022-09-16T11:47:40.848Z,19.03
2022-09-16T11:50:37.579Z,18.06
2022-09-16T11:53:54.048Z,18.47
2022-09-16T11:56:37.158Z,17.90
2022-09-16T11:59:17.219Z,17.49
2022-09-16T12:01:52.483Z,17.66
2022-09-16T12:04:33.829Z,17.57
2022-09-16T12:07:14.064Z,17.75
2022-09-16T12:09:51.201Z,18.00
2022-09-16T12:12:23.885Z,18.41
2022-09-16T12:15:04.816Z,18.78
2022-09-16T12:17:37.945Z,17.80
2022-09-16T12:20:16.768Z,18.41
2022-09-16T12:22:51.114Z,17.98
2022-09-16T12:25:27.162Z,18.39
2022-09-16T12:28:03.546Z,18.79
2022-09-16T12:30:39.670Z,19.03
2022-09-16T12:33:17.283Z,18.84
2022-09-16T12:35:58.354Z,18.50
2022-09-16T12:38:26.645Z,18.31
2022-09-16T12:41:22.246Z,18.35
2022-09-16T12:44:33.577Z,18.25
2022-09-16T12:47:54.092Z,18.88
2022-09-16T12:50:48.314Z,17.89
2022-09-16T12:53:49.707Z,18.16
2022-09-16T12:56:44.274Z,18.80
2022-09-16T12:59:42.700Z,18.46
2022-09-16T13:02:18.915Z,18.27
2022-09-16T13:04:50.961Z,18.47
2022-09-16T13:07:26.874Z,18.40
2022-09-16T13:10:03.862Z,18.39
2022-09-16T13:12:44.025Z,18.27
2022-09-16T13:15:28.277Z,18.57
2022-09-16T13:18:09.330Z,18.17
2022-09-16T13:20:42.393Z,18.56
2022-09-16T13:23:20.079Z,18.86
2022-09-16T13:25:59.099Z,18.60
2022-09-16T13:28:38.682Z,19.24
2022-09-16T13:31:29.326Z,19.57
2022-09-16T13:34:17.536Z,18.75
2022-09-16T13:36:45.518Z,18.16
2022-09-16T13:39:16.339Z,18.36
2022-09-16T13:41:47.233Z,19.02
2022-09-16T13:44:40.166Z,18.78
2022-09-16T13:47:17.277Z,19.85
2022-09-16T13:49:53.308Z,19.43
2022-09-16T13:52:30.820Z,19.77
2022-09-16T13:55:11.325Z,19.00
2022-09-16T13:57:58.752Z,18.79
2022-09-16T14:00:34.006Z,18.86
2022-09-16T14:03:34.919Z,19.24
2022-09-16T14:06:23.567Z,19.05
2022-09-16T14:09:03.246Z,18.91
2022-09-16T14:11:42.482Z,19.72
2022-09-16T14:14:36.168Z,19.80
2022-09-16T14:17:15.591Z,19.75
2022-09-16T14:19:46.754Z,19.62
2022-09-16T14:22:21.718Z,19.44
2022-09-16T14:24:56.458Z,18.99
2022-09-16T14:27:39.406Z,19.24
2022-09-16T14:30:16.880Z,19.78
2022-09-16T14:32:46.873Z,18.94
2022-09-16T14:35:21.150Z,19.00
2022-09-16T14:37:58.460Z,19.83
2022-09-16T14:40:29.237Z,19.74
2022-09-16T14:43:03.173Z,19.20
2022-09-16T14:45:33.783Z,19.54
2022-09-16T14:48:08.974Z,19.28
2022-09-16T14:50:45.120Z,19.29
2022-09-16T14:53:35.355Z,18.90
2022-09-16T14:56:04.462Z,19.10
2022-09-16T14:58:34.906Z,19.11
2022-09-16T15:01:12.450Z,19.47
2022-09-16T15:03:49.885Z,19.06
2022-09-16T15:06:23.753Z,19.16
2022-09-16T15:08:59.416Z,18.96
2022-09-16T15:11:47.697Z,19.33
2022-09-16T15:14:16.900Z,19.75
2022-09-16T15:16:49.845Z,19.39
2022-09-16T15:19:22.845Z,19.12
2022-09-16T15:21:52.075Z,19.08
2022-09-16T15:24:28.279Z,19.07
2022-09-16T15:26:58.254Z,19.67
2022-09-16T15:29:33.860Z,19.70
2022-09-16T15:32:19.358Z,19.48
2022-09-16T15:34:47.444Z,18.88
2022-09-16T15:37:33.688Z,18.60
2022-09-16T15:40:23.892Z,19.19
2022-09-16T15:43:06.399Z,19.41
2022-09-16T15:45:34.718Z,19.42
2022-09-16T15:48:08.688Z,19.26
2022-09-16T15:50:44.870Z,19.10
2022-09-16T15:53:19.333Z,18.00
2022-09-16T15:56:01.385Z,18.13
2022-09-16T15:58:40.882Z,18.55
2022-09-16T16:01:16.758Z,18.95
2022-09-16T16:03:55.432Z,18.88
2022-09-16T16:06:52.357Z,19.08
2022-09-16T16:09:41.400Z,18.52
2022-09-16T16:12:13.911Z,19.20
2022-09-16T16:14:42.935Z,19.30
2022-09-16T16:17:15.246Z,19.27
2022-09-16T16:19:43.796Z,19.14
2022-09-16T16:22:14.020Z,18.60
2022-09-16T16:24:42.087Z,18.51
2022-09-16T16:27:10.580Z,18.84
2022-09-16T16:29:39.273Z,19.08
2022-09-16T16:32:10.621Z,18.89
2022-09-16T16:34:40.792Z,18.66
2022-09-16T16:37:16.153Z,19.21
2022-09-16T16:39:53.226Z,18.82
2022-09-16T16:42:23.169Z,19.42
2022-09-16T16:44:51.580Z,18.47
2022-09-16T16:47:19.572Z,18.94
2022-09-16T16:49:51.400Z,18.62
2022-09-16T16:52:19.486Z,17.82
2022-09-16T16:54:54.249Z,18.22
2022-09-16T16:57:22.133Z,18.41
2022-09-16T16:59:49.956Z,18.18
2022-09-16T17:02:17.745Z,18.00
2022-09-16T17:04:45.568Z,17.69
2022-09-16T17:07:28.919Z,18.02
2022-09-16T17:10:13.020Z,17.73
2022-09-16T17:12:40.924Z,18.56
2022-09-16T17:15:09.854Z,18.22
2022-09-16T17:17:37.840Z,17.47
2022-09-16T17:20:06.914Z,18.07
2022-09-16T17:22:34.817Z,17.94
2022-09-16T17:25:02.590Z,18.15
2022-09-16T17:27:31.706Z,17.97
2022-09-16T17:30:01.077Z,18.21
2022-09-16T17:32:28.952Z,17.59
2022-09-16T17:34:57.072Z,17.59
2022-09-16T17:37:24.867Z,17.93
2022-09-16T17:39:52.697Z,18.11
2022-09-16T17:42:20.939Z,17.60
2022-09-16T17:44:50.055Z,17.78
2022-09-16T17:47:17.805Z,17.70
2022-09-16T17:49:45.621Z,17.00
2022-09-16T17:52:13.415Z,17.06
2022-09-16T17:54:42.050Z,17.14
2022-09-16T17:57:09.845Z,17.64
2022-09-16T17:59:37.631Z,17.05
2022-09-16T18:02:07.601Z,17.52
2022-09-16T18:04:35.462Z,17.94
2022-09-16T18:07:03.451Z,17.18
2022-09-16T18:09:32.441Z,17.88
2022-09-16T18:12:00.227Z,17.74
2022-09-16T18:14:28.312Z,16.89
2022-09-16T18:16:56.188Z,17.25
2022-09-16T18:19:25.413Z,16.80
2022-09-16T18:21:53.352Z,17.40
2022-09-16T18:24:21.276Z,17.66
2022-09-16T18:26:49.481Z,17.66
2022-09-16T18:29:17.571Z,16.90
2022-09-16T18:31:48.763Z,16.96
2022-09-16T18:34:18.222Z,17.05
2022-09-16T18:36:47.402Z,16.39
2022-09-16T18:39:18.296Z,16.48
2022-09-16T18:41:47.182Z,16.36
2022-09-16T18:44:19.535Z,16.07
2022-09-16T18:46:48.133Z,16.80
2022-09-16T18:49:18.631Z,17.41
2022-09-16T18:51:52.138Z,17.44
2022-09-16T18:54:24.844Z,17.36
2022-09-16T18:56:55.823Z,17.02
2022-09-16T18:59:28.679Z,16.54
2022-09-16T19:01:59.389Z,16.80
2022-09-16T19:04:31.460Z,16.95
2022-09-16T19:07:07.953Z,17.00
2022-09-16T19:09:39.716Z,16.82
2022-09-16T19:12:09.513Z,17.22
2022-09-16T19:14:44.651Z,17.22
2022-09-16T19:17:15.757Z,17.10
2022-09-16T19:19:43.653Z,17.11
2022-09-16T19:22:13.175Z,17.26
2022-09-16T19:24:42.143Z,17.23
2022-09-16T19:27:10.038Z,17.08
2022-09-16T19:29:37.839Z,16.39
2022-09-16T19:32:06.363Z,15.91
2022-09-16T19:34:34.275Z,16.06
2022-09-16T19:37:02.223Z,16.88
2022-09-16T19:39:31.822Z,16.50
2022-09-16T19:42:03.457Z,16.93
2022-09-16T19:44:31.905Z,16.59
2022-09-16T19:46:59.793Z,16.45
2022-09-16T19:49:27.592Z,16.03
2022-09-16T19:51:55.452Z,16.17
2022-09-16T19:54:24.531Z,16.50
2022-09-16T19:56:56.561Z,16.71
2022-09-16T19:59:24.476Z,16.11
2022-09-16T20:01:53.176Z,15.49
2022-09-16T20:04:21.421Z,15.61
2022-09-16T20:06:52.533Z,15.79
2022-09-16T20:09:20.607Z,14.71
2022-09-16T20:11:49.826Z,15.70
2022-09-16T20:14:22.223Z,16.13
2022-09-16T20:16:51.925Z,15.20
2022-09-16T20:19:21.270Z,15.55
2022-09-16T20:21:49.834Z,15.25
2022-09-16T20:24:20.434Z,15.00
2022-09-16T20:26:52.622Z,14.94
2022-09-16T20:29:23.023Z,15.04
2022-09-16T20:31:54.031Z,14.38
2022-09-16T20:34:24.219Z,14.62
2022-09-16T20:36:52.749Z,14.18
2022-09-16T20:39:23.093Z,14.15
2022-09-16T20:41:52.768Z,15.18
2022-09-16T20:44:22.068Z,14.82
2022-09-16T20:46:50.136Z,15.13
2022-09-16T20:49:22.877Z,14.84
2022-09-16T20:51:50.839Z,13.82
2022-09-16T20:54:18.899Z,14.67
2022-09-16T20:56:49.343Z,14.41
2022-09-16T20:59:22.528Z,14.38
2022-09-16T21:01:52.001Z,14.21
2022-09-16T21:04:21.745Z,14.22
2022-09-16T21:06:49.845Z,13.31
2022-09-16T21:09:19.030Z,13.24
2022-09-16T21:11:47.421Z,12.80
2022-09-16T21:14:17.599Z,13.66
2022-09-16T21:16:47.998Z,13.74
2022-09-16T21:19:18.166Z,13.99
2022-09-16T21:21:47.884Z,14.34
2022-09-16T21:24:17.022Z,14.55
2022-09-16T21:26:46.697Z,14.43
2022-09-16T21:29:17.520Z,14.75
2022-09-16T21:31:45.999Z,15.04
2022-09-16T21:34:18.697Z,14.15
2022-09-16T21:36:46.817Z,14.73
2022-09-16T21:39:18.861Z,13.54
2022-09-16T21:41:48.984Z,13.17
2022-09-16T21:44:19.919Z,13.88
2022-09-16T21:46:51.693Z,14.44
2022-09-16T21:49:25.236Z,14.28
2022-09-16T21:51:56.320Z,14.61
2022-09-16T21:54:25.715Z,14.08
2022-09-16T21:56:56.691Z,14.17
2022-09-16T21:59:24.772Z,14.80
2022-09-16T22:02:01.382Z,14.40
2022-09-16T22:04:32.728Z,15.10
2022-09-16T22:07:00.528Z,15.28
2022-09-16T22:09:28.490Z,15.29
2022-09-16T22:11:56.625Z,16.14
2022-09-16T22:14:24.418Z,16.45
2022-09-16T22:16:52.248Z,16.95
2022-09-16T22:19:20.890Z,17.11
2022-09-16T22:21:52.202Z,17.36
2022-09-16T22:24:21.532Z,17.09
2022-09-16T22:26:51.348Z,17.44
2022-09-16T22:29:19.360Z,17.26
2022-09-16T22:31:47.419Z,16.55
2022-09-16T22:34:15.755Z,16.49
2022-09-16T22:36:43.605Z,17.33
2022-09-16T22:39:16.607Z,16.24
2022-09-16T22:41:45.029Z,16.63
2022-09-16T22:44:13.525Z,15.79
2022-09-16T22:46:44.592Z,15.30
2022-09-16T22:49:13.326Z,14.77
2022-09-16T22:51:41.541Z,14.27
2022-09-16T22:54:11.853Z,13.93
2022-09-16T22:56:41.164Z,14.50
2022-09-16T22:59:16.586Z,14.62
2022-09-16T23:01:44.505Z,15.21
2022-09-16T23:04:12.470Z,14.90
2022-09-16T23:06:41.332Z,14.48
2022-09-16T23:09:13.237Z,14.30
2022-09-16T23:11:42.345Z,14.28
2022-09-16T23:14:14.578Z,14.31
2022-09-16T23:16:42.568Z,14.07
2022-09-16T23:19:13.119Z,14.30
2022-09-16T23:21:42.114Z,14.45
2022-09-16T23:24:17.359Z,14.11
2022-09-16T23:26:49.045Z,13.96
2022-09-16T23:29:19.074Z,13.94
2022-09-16T23:31:47.114Z,14.23
2022-09-16T23:34:20.832Z,14.32
2022-09-16T23:36:49.620Z,14.52
2022-09-16T23:39:18.466Z,14.66
2022-09-16T23:41:48.076Z,14.23
2022-09-16T23:44:17.007Z,13.87
2022-09-16T23:46:45.761Z,13.81
2022-09-16T23:49:16.874Z,14.05
2022-09-16T23:51:44.700Z,14.09
2022-09-16T23:54:12.534Z,14.20
2022-09-16T23:56:40.340Z,14.54
2022-09-16T23:59:09.456Z,14.42
